• Join FlightAware (Why Join?)
  • Login
  • US Flag 
04:19AM EDT


 

Airport Tracker/Info


-or-


 

Live Flight TrackerFlight Track Log ✈ PDT4227 ✈ 19-Jun-2013 ✈ KEWN - KCLT

Flight Track Log - Related Links

Times and Time Zones

All times are in EDT time to prevent confusion due to time zone crossing. See the PDT4227 flight status page for this flight to view local times or setup timezone preferences in your user account.

Time Position Orientation Groundspeed Altitude Reporting Facility
EDT Latitude Longitude Course Direction KTS MPH feet Rate Location/Type
02:41PM 34.9227 -77.2050 226° Southwest  Level FlightAware Approximate
02:42PM 34.8753 -77.2630 225° Southwest  Level FlightAware Approximate
02:42PM 35.0506 -77.1372 219° Southwest 191 220 4,900  Level Washington Center
02:43PM 34.8275 -77.3204 225° Southwest  Level FlightAware Approximate
02:43PM 35.0044 -77.1667 208° Southwest 191 220 5,700  Level Washington Center
02:44PM 34.7778 -77.3667 231° Southwest  Level FlightAware Approximate
02:44PM 34.9519 -77.1961 205° Southwest 203 234 6,400  Level Washington Center
02:45PM 34.7306 -77.4246 223° Southwest  Level FlightAware Approximate
02:45PM 34.9075 -77.2358 216° Southwest 210 242 7,100  Level Washington Center
02:46PM 34.6816 -77.4806 223° Southwest  Level FlightAware Approximate
02:46PM 34.8628 -77.2906 225° Southwest 218 251 8,000  Level Washington Center
02:47PM 34.6317 -77.5350 219° Southwest  Level FlightAware Approximate
02:47PM 34.8206 -77.3428 225° Southwest 218 251 8,800  Level Washington Center
02:48PM 34.7781 -77.3925 224° Southwest 218 251 9,500 780 Climbing Washington Center
02:49PM 34.7336 -77.4319 216° Southwest 218 251 10,400 660 Climbing Washington Center
02:50PM 34.6931 -77.4789 224° Southwest 212 244 10,900 600 Climbing Washington Center
02:51PM 34.6528 -77.5286 225° Southwest 212 244 11,600 600 Climbing Washington Center
02:52PM 34.6144 -77.5731 224° Southwest 212 244 12,200 600 Climbing Washington Center
02:53PM 34.5719 -77.6175 221° Southwest 207 238 12,900 720 Climbing Washington Center
02:54PM 34.5358 -77.6644 227° Southwest 202 232 13,700 660 Climbing Washington Center
02:55PM 34.4994 -77.7089 225° Southwest 196 226 14,300 540 Climbing Washington Center
02:56PM 34.4633 -77.7508 224° Southwest 191 220 14,800 540 Climbing Washington Center
02:57PM 34.4228 -77.7925 220° Southwest 191 220 15,400 540 Climbing Washington Center
02:58PM 34.3867 -77.8367 225° Southwest 196 226 15,900 240 Climbing Washington Center
02:59PM 34.3481 -77.8861 227° Southwest 196 226 16,000  Climbing Washington Center
03:00PM 34.3447 -77.9564 267° West 196 226 16,000  Level Washington Center
03:01PM 34.3431 -78.0267 268° West 202 232 16,000  Level Washington Center
03:02PM 34.3333 -78.0994 261° West 218 251 16,000  Level Washington Center
03:03PM 34.3339 -78.1747 271° West 223 257 16,000  Level Washington Center
03:06PM 34.3228 -78.3697 266° West 222 255 16,000  Level Jacksonville Center
03:07PM 34.3192 -78.4453 267° West 222 255 16,000  Level Jacksonville Center
03:08PM 34.3153 -78.5133 266° West 222 255 16,000  Level Jacksonville Center
03:09PM 34.3075 -78.5867 263° West 222 255 16,000  Level Jacksonville Center
03:10PM 34.3017 -78.6622 265° West 222 255 16,000  Level Jacksonville Center
03:11PM 34.2958 -78.7356 265° West 222 255 16,000 -120 Level Jacksonville Center
03:12PM 34.2858 -78.8114 261° West 222 255 15,800 -360 Descending Jacksonville Center
03:13PM 34.2819 -78.8894 267° West 222 255 15,300 -540 Descending Jacksonville Center
03:14PM 34.2761 -78.9700 265° West 234 269 14,800 -540 Descending Jacksonville Center
03:15PM 34.2725 -79.0506 267° West 239 275 14,300 -780 Descending Jacksonville Center
03:16PM 34.2747 -79.1308 272° West 239 275 13,300 -1,020 Descending Jacksonville Center
03:17PM 34.3039 -79.2000 297° West 232 267 12,300 -1,020 Descending Jacksonville Center
03:18PM 34.3289 -79.2694 294° West 232 267 11,300 -1,020 Descending Jacksonville Center
03:19PM 34.3497 -79.3439 289° West 232 267 10,300 -660 Descending Jacksonville Center
03:20PM 34.3772 -79.4258 292° West 232 267 10,000 -180 Descending Jacksonville Center
03:21PM 34.4042 -79.4953 295° West 232 267 10,000  Level Jacksonville Center
03:22PM 34.4269 -79.5697 290° West 232 267 10,000  Level Jacksonville Center
03:23PM 34.4475 -79.6419 289° West 227 261 10,000  Level Jacksonville Center
03:24PM 34.4710 -79.7089 293° West  Level FlightAware Approximate
03:28PM 34.5700 -80.0356 292° West 230 265 10,000  Level Atlanta Center
03:29PM 34.6025 -80.1372 291° West 230 265 10,000  Level Atlanta Center
03:30PM 34.6258 -80.2094 291° West 229 264 10,000  Level Atlanta Center
03:31PM 34.6324 -80.1799 292° West  Level FlightAware Approximate
03:31PM 34.6508 -80.2817 293° West 230 265 10,000  Level Atlanta Center
03:32PM 34.6549 -80.2475 292° West  Level FlightAware Approximate
03:33PM 34.6773 -80.3152 292° West  Level FlightAware Approximate
03:33PM 34.6964 -80.3400 314° West 231 266 10,000  Level Atlanta Center
03:33PM 34.7378 -80.3939 313° West 232 267 9,900 -240 Descending Atlanta Center
03:34PM 34.7853 -80.4525 315° West 238 274 9,600 -300 Descending Atlanta Center
03:36PM 34.8436 -80.5183 317° Northwest 244 281 9,300 -300 Descending Atlanta Center
03:37PM 34.8917 -80.5897 309° West 244 281 9,000 -180 Descending Atlanta Center
03:38PM 34.9408 -80.6383 321° Northwest 236 272 9,000  Level Atlanta Center
03:39PM 34.9842 -80.6900 316° Northwest 231 266 9,000  Level Atlanta Center
03:40PM 35.0297 -80.7567 310° West 231 266 9,000  Level Atlanta Center
03:41PM 35.0825 -80.7850 336° Northwest 223 257 9,000  Level Atlanta Center
03:42PM 35.1497 -80.7950 353° North 220 253 9,000 -540 Level Atlanta Center
03:43PM 35.2081 -80.8003 356° North 211 243 8,000 -1,740 Descending Atlanta Center
03:44PM 35.2489 -80.7606 38° Northeast 209 241 5,700 -2,580 Descending Atlanta Center